Canton, New York
Current Conditions -  °F | °C
As of 1:53 AM on Friday 31 Oct 2014 (Local Time) from KMSS Reporting Station
Broken Clouds Broken Clouds  
Wind Chill: 37°   Ceiling: 3800
Heat Index: 37°   Visibility: 10mi
Dew Point: 32°   Wind: 0mph
Humidity: 82%   Direction: NA
Pressure: 30.04"   Gusts: NA
Location:  44.6°N, 75.17°W
Report Text: KMSS 310553Z AUTO 00000KT 10SM BKN038 03/00 A3004 RMK AO2 SLP177 T00280000 10056 20011 55001
Loading
Personal Weather Stations






























Interactive Weather Map
Tropical Storm Tracking
New forecast layout! Learn more

10-Day Weather Forecast

Advertisements
Track Severe Weather on mobile